createdAt,value
2022-11-05T00:09:29.750Z,10.80
2022-11-05T00:12:17.397Z,10.90
2022-11-05T00:22:46.740Z,11.00
2022-11-05T00:27:50.277Z,11.00
2022-11-05T00:30:23.220Z,11.00
2022-11-05T00:32:53.031Z,11.00
2022-11-05T00:35:26.258Z,11.00
2022-11-05T00:37:57.441Z,11.00
2022-11-05T00:48:36.298Z,11.00
2022-11-05T00:56:12.309Z,11.00
2022-11-05T01:03:40.433Z,11.00
2022-11-05T01:08:47.655Z,11.00
2022-11-05T01:11:39.424Z,11.00
2022-11-05T01:14:17.106Z,11.00
2022-11-05T01:29:15.192Z,11.00
2022-11-05T01:45:51.474Z,10.00
2022-11-05T01:48:32.143Z,10.90
2022-11-05T01:51:20.496Z,10.90
2022-11-05T01:54:08.232Z,8.60
2022-11-05T01:56:42.446Z,10.80
2022-11-05T01:59:22.875Z,10.80
2022-11-05T02:01:52.719Z,11.10
2022-11-05T02:04:32.204Z,10.80
2022-11-05T02:07:01.330Z,10.80
2022-11-05T02:09:40.648Z,10.40
2022-11-05T02:12:10.608Z,10.80
2022-11-05T02:17:20.727Z,10.50
2022-11-05T02:20:10.572Z,10.50
2022-11-05T02:23:19.070Z,10.70
2022-11-05T02:26:08.058Z,10.70
2022-11-05T02:29:14.839Z,11.00
2022-11-05T02:32:03.900Z,10.60
2022-11-05T02:35:24.466Z,10.70
2022-11-05T02:40:38.023Z,10.70
2022-11-05T02:43:16.391Z,10.70
2022-11-05T02:45:57.617Z,10.70
2022-11-05T02:48:51.131Z,10.70
2022-11-05T02:51:40.913Z,11.00
2022-11-05T02:54:11.798Z,10.70
2022-11-05T02:56:46.231Z,10.90
2022-11-05T02:59:14.170Z,10.80
2022-11-05T03:01:45.148Z,10.60
2022-11-05T03:04:17.740Z,10.60
2022-11-05T03:07:45.110Z,10.40
2022-11-05T03:10:44.450Z,10.20
2022-11-05T03:13:29.826Z,10.60
2022-11-05T03:16:11.830Z,10.60
2022-11-05T03:19:01.713Z,10.60
2022-11-05T03:21:57.327Z,10.20
2022-11-05T03:24:32.901Z,10.30
2022-11-05T03:27:26.439Z,10.40
2022-11-05T03:30:10.732Z,10.40
2022-11-05T03:32:44.272Z,10.40
2022-11-05T03:35:20.161Z,10.40
2022-11-05T03:37:52.347Z,10.80
2022-11-05T03:40:24.011Z,10.30
2022-11-05T03:42:56.534Z,10.40
2022-11-05T03:45:34.197Z,10.00
2022-11-05T03:48:04.571Z,10.60
2022-11-05T03:51:06.289Z,10.10
2022-11-05T03:53:46.970Z,10.40
2022-11-05T03:56:53.228Z,10.50
2022-11-05T03:59:22.302Z,10.50
2022-11-05T04:01:51.415Z,10.40
2022-11-05T04:20:19.294Z,10.20
2022-11-05T04:23:04.429Z,10.10
2022-11-05T04:28:01.698Z,10.20
2022-11-05T04:30:28.689Z,9.80
2022-11-05T04:33:14.003Z,10.20
2022-11-05T04:35:50.127Z,10.10
2022-11-05T04:38:20.546Z,10.10
2022-11-05T04:40:49.199Z,10.20
2022-11-05T04:43:20.063Z,10.00
2022-11-05T04:50:44.830Z,10.10
2022-11-05T04:55:41.583Z,9.90
2022-11-05T04:58:10.693Z,9.80
2022-11-05T05:00:38.656Z,10.10
2022-11-05T05:08:07.315Z,9.80
2022-11-05T05:10:35.650Z,9.80
2022-11-05T05:13:04.112Z,10.10
2022-11-05T05:18:01.133Z,9.90
2022-11-05T05:23:15.265Z,9.00
2022-11-05T05:25:43.308Z,9.70
2022-11-05T05:33:08.577Z,9.10
2022-11-05T05:43:02.276Z,9.50
2022-11-05T06:02:50.564Z,9.20
2022-11-05T06:05:18.659Z,8.90
2022-11-05T06:07:46.740Z,9.60
2022-11-05T06:17:41.358Z,8.80
2022-11-05T06:25:08.871Z,9.20
2022-11-05T06:30:06.731Z,9.20
2022-11-05T06:35:03.716Z,8.90
2022-11-05T06:37:34.491Z,9.60
2022-11-05T07:07:25.690Z,8.70
2022-11-05T07:09:54.356Z,8.90
2022-11-05T07:17:20.175Z,8.90
2022-11-05T07:22:16.841Z,8.90
2022-11-05T07:27:15.579Z,9.50
2022-11-05T07:29:44.184Z,8.80
2022-11-05T07:49:32.306Z,9.70
2022-11-05T07:54:28.648Z,9.70
2022-11-05T08:04:22.628Z,9.10
2022-11-05T08:06:51.428Z,9.50
2022-11-05T08:09:19.444Z,9.80
2022-11-05T08:36:36.710Z,10.20
2022-11-05T08:39:05.174Z,10.50
2022-11-05T08:56:24.304Z,10.10
2022-11-05T08:58:52.443Z,10.30
2022-11-05T09:03:52.593Z,10.80
2022-11-05T09:16:25.187Z,10.70
2022-11-05T09:18:53.567Z,10.50
2022-11-05T09:21:21.716Z,10.70
2022-11-05T09:31:15.348Z,10.90
2022-11-05T09:36:11.970Z,10.60
2022-11-05T09:41:56.563Z,11.00
2022-11-05T09:44:45.407Z,11.00
2022-11-05T09:47:20.344Z,11.10
2022-11-05T09:49:52.789Z,11.60
2022-11-05T09:52:30.933Z,11.20
2022-11-05T09:54:59.647Z,11.50
2022-11-05T09:57:43.130Z,11.20
2022-11-05T10:00:16.995Z,11.20
2022-11-05T10:03:04.708Z,11.80
2022-11-05T10:05:35.256Z,11.30
2022-11-05T10:08:14.910Z,11.30
2022-11-05T10:10:52.385Z,11.50
2022-11-05T10:13:23.602Z,11.40
2022-11-05T10:15:56.565Z,11.40
2022-11-05T10:18:38.343Z,11.50
2022-11-05T10:21:07.790Z,12.10
2022-11-05T10:26:12.865Z,12.70
2022-11-05T10:31:21.852Z,12.00
2022-11-05T10:33:56.739Z,11.60
2022-11-05T10:36:30.019Z,11.30
2022-11-05T10:39:16.079Z,11.70
2022-11-05T10:42:05.061Z,11.80
2022-11-05T10:44:35.048Z,11.80
2022-11-05T10:47:44.400Z,11.70
2022-11-05T10:50:21.960Z,12.10
2022-11-05T10:52:58.588Z,12.10
2022-11-05T10:55:58.456Z,12.60
2022-11-05T10:58:35.447Z,11.50
2022-11-05T11:01:10.200Z,12.50
2022-11-05T11:04:15.164Z,12.60
2022-11-05T11:06:50.759Z,12.70
2022-11-05T11:09:37.727Z,12.30
2022-11-05T11:12:15.478Z,12.60
2022-11-05T11:17:33.725Z,12.20
2022-11-05T11:20:25.142Z,13.00
2022-11-05T11:23:18.496Z,13.00
2022-11-05T11:28:27.495Z,12.60
2022-11-05T11:31:14.037Z,13.10
2022-11-05T11:33:47.195Z,12.50
2022-11-05T11:36:20.896Z,12.50
2022-11-05T11:38:49.484Z,12.10
2022-11-05T11:41:38.488Z,12.50
2022-11-05T11:44:24.555Z,12.40
2022-11-05T11:46:57.836Z,12.50
2022-11-05T11:49:47.511Z,12.60
2022-11-05T11:52:19.526Z,12.70
2022-11-05T11:57:26.415Z,12.80
2022-11-05T12:00:12.889Z,12.90
2022-11-05T12:03:18.656Z,13.40
2022-11-05T12:06:26.675Z,13.40
2022-11-05T12:09:13.211Z,12.50
2022-11-05T12:11:55.690Z,12.80
2022-11-05T12:15:02.726Z,13.10
2022-11-05T12:18:24.545Z,12.60
2022-11-05T12:21:48.142Z,12.80
2022-11-05T12:24:18.292Z,13.30
2022-11-05T12:30:09.948Z,12.90
2022-11-05T12:32:55.374Z,13.10
2022-11-05T12:38:07.188Z,13.50
2022-11-05T12:40:56.566Z,13.40
2022-11-05T12:43:36.467Z,13.80
2022-11-05T12:46:47.251Z,13.60
2022-11-05T12:49:44.721Z,13.70
2022-11-05T12:52:28.206Z,13.50
2022-11-05T12:55:12.966Z,13.60
2022-11-05T12:57:44.614Z,13.80
2022-11-05T13:00:25.561Z,13.20
2022-11-05T13:03:49.809Z,14.10
2022-11-05T13:06:25.493Z,13.50
2022-11-05T13:09:28.671Z,13.40
2022-11-05T13:12:02.306Z,13.10
2022-11-05T13:15:01.244Z,13.10
2022-11-05T13:17:44.859Z,13.00
2022-11-05T13:20:26.340Z,12.90
2022-11-05T13:23:01.440Z,12.80
2022-11-05T13:25:38.447Z,12.70
2022-11-05T13:28:33.712Z,12.20
2022-11-05T13:31:05.428Z,12.60
2022-11-05T13:33:40.682Z,12.60
2022-11-05T13:36:41.730Z,12.60
2022-11-05T13:39:30.188Z,11.80
2022-11-05T13:42:36.404Z,14.00
2022-11-05T13:45:29.338Z,12.50
2022-11-05T13:48:27.559Z,12.80
2022-11-05T13:51:39.765Z,12.40
2022-11-05T13:54:37.380Z,12.40
2022-11-05T13:57:19.133Z,12.40
2022-11-05T14:00:11.592Z,12.10
2022-11-05T14:02:56.532Z,12.40
2022-11-05T14:05:45.942Z,12.30
2022-11-05T14:08:22.542Z,12.30
2022-11-05T14:11:19.122Z,12.30
2022-11-05T14:13:52.297Z,12.30
2022-11-05T14:16:29.583Z,12.30
2022-11-05T14:19:19.391Z,12.30
2022-11-05T14:24:22.959Z,12.40
2022-11-05T14:27:02.781Z,12.30
2022-11-05T14:29:45.003Z,12.30
2022-11-05T14:32:19.332Z,11.90
2022-11-05T14:35:09.189Z,12.20
2022-11-05T14:37:42.295Z,12.20
2022-11-05T14:40:43.342Z,12.20
2022-11-05T14:43:26.973Z,12.20
2022-11-05T14:46:03.633Z,12.10
2022-11-05T14:51:45.945Z,12.10
2022-11-05T14:54:45.522Z,10.70
2022-11-05T14:57:17.500Z,11.90
2022-11-05T15:00:07.119Z,11.90
2022-11-05T15:02:39.148Z,11.80
2022-11-05T15:05:47.643Z,11.30
2022-11-05T15:08:32.171Z,11.80
2022-11-05T15:11:39.732Z,11.60
2022-11-05T15:14:29.363Z,11.70
2022-11-05T15:17:20.169Z,11.60
2022-11-05T15:19:49.113Z,11.60
2022-11-05T15:22:31.762Z,11.50
2022-11-05T15:25:01.101Z,11.50
2022-11-05T15:27:50.135Z,11.40
2022-11-05T15:30:24.433Z,11.30
2022-11-05T15:32:53.475Z,11.20
2022-11-05T15:35:27.975Z,11.20
2022-11-05T15:38:02.231Z,11.20
2022-11-05T15:40:33.837Z,11.40
2022-11-05T15:43:20.673Z,11.10
2022-11-05T15:46:16.540Z,11.00
2022-11-05T15:48:58.231Z,10.90
2022-11-05T15:51:27.603Z,10.90
2022-11-05T15:54:24.425Z,11.20
2022-11-05T15:56:54.536Z,10.40
2022-11-05T15:59:26.021Z,10.70
2022-11-05T16:02:01.043Z,12.30
2022-11-05T16:04:33.503Z,11.10
2022-11-05T16:07:11.081Z,10.60
2022-11-05T16:09:43.727Z,11.10
2022-11-05T16:12:21.019Z,10.30
2022-11-05T16:15:02.200Z,10.40
2022-11-05T16:17:47.034Z,10.40
2022-11-05T16:20:33.214Z,10.30
2022-11-05T16:23:03.753Z,10.30
2022-11-05T16:25:44.274Z,10.70
2022-11-05T16:28:30.715Z,10.20
2022-11-05T16:31:06.678Z,9.70
2022-11-05T16:33:55.483Z,9.80
2022-11-05T16:41:23.928Z,9.40
2022-11-05T16:44:00.109Z,10.00
2022-11-05T16:46:30.551Z,9.90
2022-11-05T16:51:29.620Z,10.10
2022-11-05T17:01:24.908Z,9.80
2022-11-05T17:03:54.571Z,9.60
2022-11-05T17:06:23.670Z,9.70
2022-11-05T17:08:51.657Z,9.40
2022-11-05T17:11:22.133Z,9.80
2022-11-05T17:13:51.204Z,10.10
2022-11-05T17:18:47.675Z,9.50
2022-11-05T17:26:14.316Z,9.30
2022-11-05T17:28:42.800Z,9.60
2022-11-05T17:31:14.342Z,9.10
2022-11-05T17:33:42.934Z,9.70
2022-11-05T17:36:15.338Z,9.50
2022-11-05T17:41:14.545Z,9.20
2022-11-05T17:46:15.144Z,9.20
2022-11-05T17:48:44.858Z,9.20
2022-11-05T17:51:16.118Z,9.10
2022-11-05T17:53:44.544Z,9.20
2022-11-05T17:56:32.238Z,9.00
2022-11-05T18:01:35.724Z,8.80
2022-11-05T18:04:09.074Z,9.30
2022-11-05T18:06:45.952Z,8.90
2022-11-05T18:09:14.453Z,8.90
2022-11-05T18:11:43.367Z,8.70
2022-11-05T18:19:08.426Z,9.10
2022-11-05T18:21:36.371Z,9.20
2022-11-05T18:24:08.160Z,8.80
2022-11-05T18:26:36.418Z,8.50
2022-11-05T18:29:06.252Z,8.70
2022-11-05T18:34:02.864Z,9.10
2022-11-05T18:36:33.150Z,8.60
2022-11-05T18:39:03.269Z,8.50
2022-11-05T18:44:06.021Z,8.50
2022-11-05T18:59:38.793Z,8.40
2022-11-05T19:02:12.071Z,8.40
2022-11-05T19:04:55.076Z,8.40
2022-11-05T19:24:57.121Z,8.40
2022-11-05T19:39:48.011Z,8.30
2022-11-05T20:02:04.707Z,8.60
2022-11-05T20:14:27.572Z,8.60
2022-11-05T20:21:53.549Z,8.80
2022-11-05T20:24:25.188Z,8.60
2022-11-05T20:26:57.806Z,8.60
2022-11-05T20:29:33.915Z,8.60
2022-11-05T20:34:34.690Z,8.60
2022-11-05T20:37:03.066Z,9.00
2022-11-05T20:54:23.714Z,8.00
2022-11-05T21:06:45.871Z,8.00
2022-11-05T21:09:13.988Z,8.20
2022-11-05T21:11:59.143Z,8.10
2022-11-05T21:29:19.845Z,8.20
2022-11-05T21:34:18.963Z,7.90
2022-11-05T21:36:47.547Z,8.40
2022-11-05T21:57:33.540Z,8.10
2022-11-05T22:00:02.097Z,8.00
2022-11-05T22:02:30.661Z,7.90
2022-11-05T22:07:33.754Z,8.20
2022-11-05T22:10:03.160Z,8.20
2022-11-05T22:12:33.127Z,8.20
2022-11-05T22:19:58.514Z,8.10
2022-11-05T22:27:23.201Z,8.60
2022-11-05T22:29:51.613Z,8.50
2022-11-05T22:34:49.816Z,8.10
2022-11-05T22:49:42.100Z,8.40
2022-11-05T22:52:10.295Z,7.80
2022-11-05T23:10:13.960Z,8.30
2022-11-05T23:21:04.670Z,8.00
2022-11-05T23:45:17.968Z,7.70
2022-11-05T23:50:37.110Z,8.30
2022-11-05T23:53:07.608Z,7.80
2022-11-05T23:55:36.031Z,7.60
